createdAt,value
2022-11-15T00:01:58.104Z,8.96
2022-11-15T00:04:44.210Z,8.69
2022-11-15T00:07:54.190Z,8.78
2022-11-15T00:10:37.985Z,8.88
2022-11-15T00:13:27.755Z,8.81
2022-11-15T00:16:13.917Z,8.78
2022-11-15T00:19:00.023Z,8.94
2022-11-15T00:21:46.052Z,9.04
2022-11-15T00:24:32.299Z,9.07
2022-11-15T00:27:18.343Z,8.81
2022-11-15T00:30:04.975Z,8.79
2022-11-15T00:32:51.415Z,8.81
2022-11-15T00:35:37.449Z,9.06
2022-11-15T00:38:24.097Z,9.02
2022-11-15T00:41:10.470Z,8.98
2022-11-15T00:43:56.498Z,9.16
2022-11-15T00:46:42.681Z,9.10
2022-11-15T00:49:28.922Z,9.07
2022-11-15T00:52:14.990Z,9.25
2022-11-15T00:55:01.208Z,9.07
2022-11-15T00:57:47.553Z,9.06
2022-11-15T01:00:33.646Z,9.02
2022-11-15T01:03:19.941Z,9.17
2022-11-15T01:06:06.840Z,9.01
2022-11-15T01:08:54.921Z,9.59
2022-11-15T01:11:41.240Z,9.55
2022-11-15T01:14:27.459Z,9.42
2022-11-15T01:17:13.677Z,9.30
2022-11-15T01:19:59.952Z,8.69
2022-11-15T01:22:46.017Z,9.21
2022-11-15T01:25:32.117Z,9.03
2022-11-15T01:28:18.512Z,9.00
2022-11-15T01:31:11.465Z,8.71
2022-11-15T01:33:57.489Z,8.82
2022-11-15T01:36:43.760Z,8.60
2022-11-15T01:39:29.880Z,8.78
2022-11-15T01:42:16.402Z,8.76
2022-11-15T01:45:07.067Z,8.82
2022-11-15T01:47:54.367Z,8.93
2022-11-15T01:50:40.416Z,8.87
2022-11-15T01:53:27.245Z,8.64
2022-11-15T01:56:16.248Z,8.45
2022-11-15T01:59:04.744Z,8.80
2022-11-15T02:01:51.279Z,8.93
2022-11-15T02:04:42.541Z,8.74
2022-11-15T02:07:29.716Z,8.96
2022-11-15T02:10:23.849Z,9.36
2022-11-15T02:13:10.035Z,9.17
2022-11-15T02:16:24.711Z,8.83
2022-11-15T02:19:33.960Z,8.70
2022-11-15T02:22:52.197Z,8.85
2022-11-15T02:25:48.622Z,8.89
2022-11-15T02:28:34.677Z,9.13
2022-11-15T02:31:29.775Z,8.81
2022-11-15T02:34:26.318Z,9.14
2022-11-15T02:37:27.478Z,9.23
2022-11-15T02:40:31.893Z,9.32
2022-11-15T02:43:45.177Z,9.21
2022-11-15T02:46:52.935Z,9.10
2022-11-15T02:49:39.102Z,8.78
2022-11-15T02:52:29.004Z,8.78
2022-11-15T02:55:33.259Z,9.05
2022-11-15T02:59:17.140Z,8.83
2022-11-15T03:02:18.283Z,8.78
2022-11-15T03:05:42.873Z,8.96
2022-11-15T03:08:46.989Z,8.59
2022-11-15T03:11:39.977Z,8.75
2022-11-15T03:14:26.984Z,8.70
2022-11-15T03:17:19.056Z,9.04
2022-11-15T03:20:07.511Z,9.03
2022-11-15T03:22:55.349Z,8.92
2022-11-15T03:25:52.509Z,8.85
2022-11-15T03:29:02.309Z,8.90
2022-11-15T03:31:53.539Z,9.12
2022-11-15T03:34:49.368Z,8.94
2022-11-15T03:37:41.948Z,8.97
2022-11-15T03:40:38.768Z,9.07
2022-11-15T03:43:54.241Z,9.03
2022-11-15T03:46:47.622Z,9.05
2022-11-15T03:49:35.897Z,9.09
2022-11-15T03:52:23.325Z,9.44
2022-11-15T03:55:12.807Z,8.92
2022-11-15T03:58:01.023Z,8.81
2022-11-15T04:00:47.248Z,8.99
2022-11-15T04:03:33.752Z,9.63
2022-11-15T04:06:20.032Z,9.44
2022-11-15T04:09:06.105Z,9.13
2022-11-15T04:11:52.363Z,9.22
2022-11-15T04:14:58.704Z,9.13
2022-11-15T04:17:47.679Z,9.20
2022-11-15T04:20:52.297Z,9.26
2022-11-15T04:24:07.483Z,9.19
2022-11-15T04:26:53.848Z,9.48
2022-11-15T04:29:40.203Z,9.33
2022-11-15T04:32:26.686Z,9.36
2022-11-15T04:35:13.096Z,9.87
2022-11-15T04:37:59.553Z,9.96
2022-11-15T04:40:45.423Z,9.52
2022-11-15T04:43:32.217Z,9.15
2022-11-15T04:46:24.840Z,9.10
2022-11-15T04:49:10.878Z,8.97
2022-11-15T04:51:57.263Z,9.08
2022-11-15T04:54:43.986Z,9.19
2022-11-15T04:57:30.167Z,9.30
2022-11-15T05:00:17.863Z,9.28
2022-11-15T05:03:22.578Z,9.31
2022-11-15T05:06:08.942Z,9.39
2022-11-15T05:08:55.463Z,9.48
2022-11-15T05:11:42.090Z,9.26
2022-11-15T05:14:27.987Z,9.39
2022-11-15T05:17:14.163Z,9.77
2022-11-15T05:20:00.210Z,9.69
2022-11-15T05:22:46.358Z,9.64
2022-11-15T05:25:32.603Z,9.57
2022-11-15T05:28:19.192Z,9.53
2022-11-15T05:31:07.416Z,9.75
2022-11-15T05:33:54.953Z,9.63
2022-11-15T05:36:44.543Z,9.48
2022-11-15T05:39:30.510Z,9.47
2022-11-15T05:42:17.102Z,9.45
2022-11-15T05:45:06.840Z,9.60
2022-11-15T05:47:53.252Z,9.58
2022-11-15T05:50:40.806Z,9.75
2022-11-15T05:53:27.130Z,9.71
2022-11-15T05:56:13.355Z,9.67
2022-11-15T05:59:00.164Z,9.63
2022-11-15T06:01:46.284Z,9.71
2022-11-15T06:04:32.818Z,9.70
2022-11-15T06:07:19.007Z,9.64
2022-11-15T06:10:05.688Z,9.58
2022-11-15T06:13:02.301Z,9.69
2022-11-15T06:15:48.924Z,9.71
2022-11-15T06:18:36.010Z,9.75
2022-11-15T06:21:22.429Z,9.90
2022-11-15T06:24:08.525Z,9.95
2022-11-15T06:26:54.395Z,9.82
2022-11-15T06:29:40.606Z,10.02
2022-11-15T06:32:26.931Z,10.20
2022-11-15T06:35:14.136Z,10.16
2022-11-15T06:38:08.998Z,10.21
2022-11-15T06:40:55.295Z,10.31
2022-11-15T06:43:42.008Z,10.05
2022-11-15T06:46:28.121Z,10.14
2022-11-15T06:49:14.169Z,10.32
2022-11-15T06:52:00.339Z,10.33
2022-11-15T06:54:46.655Z,10.19
2022-11-15T06:57:33.364Z,10.09
2022-11-15T07:00:23.307Z,10.21
2022-11-15T07:03:09.778Z,10.45
2022-11-15T07:05:58.500Z,10.48
2022-11-15T07:08:47.568Z,10.24
2022-11-15T07:11:34.317Z,10.48
2022-11-15T07:14:20.082Z,10.64
2022-11-15T07:17:06.314Z,10.34
2022-11-15T07:19:52.476Z,10.61
2022-11-15T07:22:38.639Z,10.38
2022-11-15T07:25:24.778Z,10.45
2022-11-15T07:28:10.996Z,10.68
2022-11-15T07:30:57.466Z,10.68
2022-11-15T07:33:43.569Z,10.99
2022-11-15T07:36:29.857Z,11.00
2022-11-15T07:39:15.981Z,10.86
2022-11-15T07:42:20.915Z,10.85
2022-11-15T07:45:07.310Z,10.83
2022-11-15T07:47:54.110Z,10.77
2022-11-15T07:50:44.103Z,10.56
2022-11-15T07:53:30.752Z,11.02
2022-11-15T07:56:17.150Z,10.77
2022-11-15T07:59:03.108Z,10.85
2022-11-15T08:01:49.595Z,11.11
2022-11-15T08:04:35.621Z,10.93
2022-11-15T08:07:21.993Z,10.96
2022-11-15T08:10:09.063Z,10.42
2022-11-15T08:13:25.678Z,10.69
2022-11-15T08:16:13.067Z,10.62
2022-11-15T08:18:59.672Z,10.72
2022-11-15T08:21:47.802Z,10.92
2022-11-15T08:24:53.680Z,10.57
2022-11-15T08:28:03.151Z,10.75
2022-11-15T08:31:00.723Z,10.33
2022-11-15T08:34:05.147Z,10.49
2022-11-15T08:36:51.622Z,10.07
2022-11-15T08:39:37.556Z,10.16
2022-11-15T08:42:24.013Z,10.70
2022-11-15T08:45:10.415Z,10.24
2022-11-15T08:47:57.134Z,9.95
2022-11-15T08:50:44.742Z,9.75
2022-11-15T08:53:30.658Z,10.01
2022-11-15T08:56:16.945Z,10.08
2022-11-15T08:59:03.199Z,10.03
2022-11-15T09:01:49.433Z,9.86
2022-11-15T09:04:37.298Z,9.93
2022-11-15T09:07:23.631Z,10.06
2022-11-15T09:10:09.840Z,10.13
2022-11-15T09:12:58.150Z,10.19
2022-11-15T09:15:44.356Z,10.50
2022-11-15T09:18:30.894Z,10.39
2022-11-15T09:21:17.264Z,10.77
2022-11-15T09:24:05.312Z,11.01
2022-11-15T09:29:56.639Z,10.84
2022-11-15T09:32:43.974Z,10.75
2022-11-15T09:35:42.008Z,10.81
2022-11-15T09:38:40.031Z,11.16
2022-11-15T09:42:07.073Z,11.12
2022-11-15T09:44:58.256Z,10.95
2022-11-15T09:48:05.110Z,10.70
2022-11-15T09:50:50.209Z,10.97
2022-11-15T09:53:50.833Z,10.93
2022-11-15T09:56:21.919Z,11.06
2022-11-15T09:59:04.999Z,11.39
2022-11-15T10:02:05.126Z,10.98
2022-11-15T10:04:32.991Z,10.94
2022-11-15T10:07:25.449Z,10.92
2022-11-15T10:10:09.501Z,11.13
2022-11-15T10:12:37.128Z,11.07
2022-11-15T10:15:12.669Z,11.15
2022-11-15T10:18:16.288Z,10.84
2022-11-15T10:20:53.725Z,10.84
2022-11-15T10:23:23.966Z,10.84
2022-11-15T10:25:59.151Z,11.11
2022-11-15T10:28:32.037Z,11.39
2022-11-15T10:31:02.170Z,11.28
2022-11-15T10:33:35.037Z,11.29
2022-11-15T10:36:59.199Z,11.05
2022-11-15T10:42:27.647Z,11.28
2022-11-15T10:44:55.526Z,11.07
2022-11-15T10:47:29.801Z,10.82
2022-11-15T10:50:07.452Z,11.31
2022-11-15T10:56:58.336Z,11.11
2022-11-15T10:59:56.779Z,11.23
2022-11-15T11:02:39.320Z,11.15
2022-11-15T11:05:41.053Z,11.20
2022-11-15T11:08:14.051Z,11.28
2022-11-15T11:11:01.993Z,11.44
2022-11-15T11:13:38.063Z,11.31
2022-11-15T11:16:14.907Z,10.99
2022-11-15T11:19:13.666Z,11.10
2022-11-15T11:22:12.378Z,10.62
2022-11-15T11:24:39.990Z,10.95
2022-11-15T11:27:26.250Z,11.01
2022-11-15T11:30:08.440Z,10.87
2022-11-15T11:32:55.635Z,10.68
2022-11-15T11:35:37.802Z,10.77
2022-11-15T11:38:44.847Z,10.64
2022-11-15T11:41:30.401Z,10.87
2022-11-15T11:44:33.805Z,10.92
2022-11-15T11:47:22.314Z,10.99
2022-11-15T11:50:23.058Z,11.15
2022-11-15T11:53:13.244Z,11.14
2022-11-15T11:56:08.793Z,10.84
2022-11-15T11:58:49.293Z,11.09
2022-11-15T12:01:45.311Z,11.31
2022-11-15T12:04:21.361Z,11.34
2022-11-15T12:06:54.880Z,11.24
2022-11-15T12:09:42.894Z,11.23
2022-11-15T12:12:23.293Z,11.34
2022-11-15T12:15:14.402Z,11.06
2022-11-15T12:17:42.665Z,11.12
2022-11-15T12:20:19.972Z,11.21
2022-11-15T12:23:07.267Z,11.26
2022-11-15T12:25:49.387Z,11.19
2022-11-15T12:28:45.047Z,10.84
2022-11-15T12:31:35.462Z,11.35
2022-11-15T12:34:29.482Z,11.01
2022-11-15T12:36:57.274Z,11.02
2022-11-15T12:40:04.029Z,11.16
2022-11-15T12:42:32.294Z,11.18
2022-11-15T12:45:00.417Z,11.29
2022-11-15T12:47:28.355Z,10.80
2022-11-15T12:49:56.272Z,10.86
2022-11-15T12:52:23.797Z,10.78
2022-11-15T12:54:54.358Z,10.60
2022-11-15T12:57:30.108Z,10.97
2022-11-15T13:00:02.823Z,10.94
2022-11-15T13:02:38.102Z,11.15
2022-11-15T13:05:14.542Z,10.61
2022-11-15T13:07:42.286Z,10.79
2022-11-15T13:10:12.851Z,10.84
2022-11-15T13:12:43.743Z,10.79
2022-11-15T13:15:14.505Z,11.03
2022-11-15T13:17:51.872Z,10.82
2022-11-15T13:20:28.332Z,10.92
2022-11-15T13:23:14.250Z,10.56
2022-11-15T13:25:48.916Z,10.64
2022-11-15T13:28:16.631Z,10.69
2022-11-15T13:30:53.770Z,10.85
2022-11-15T13:33:24.194Z,10.91
2022-11-15T13:35:54.762Z,11.14
2022-11-15T13:38:25.153Z,11.34
2022-11-15T13:40:53.057Z,11.16
2022-11-15T13:43:28.735Z,10.94
2022-11-15T13:46:17.854Z,10.48
2022-11-15T13:48:59.976Z,10.78
2022-11-15T13:52:02.076Z,10.84
2022-11-15T13:55:01.126Z,11.08
2022-11-15T13:57:59.665Z,10.75
2022-11-15T14:00:38.074Z,10.41
2022-11-15T14:03:26.153Z,10.50
2022-11-15T14:06:14.224Z,10.46
2022-11-15T14:09:08.571Z,10.64
2022-11-15T14:11:54.354Z,10.22
2022-11-15T14:14:23.985Z,10.81
2022-11-15T14:16:57.144Z,10.74
2022-11-15T14:19:24.928Z,10.41
2022-11-15T14:22:26.532Z,10.54
2022-11-15T14:25:20.989Z,10.46
2022-11-15T14:28:19.700Z,10.50
2022-11-15T14:30:51.227Z,10.38
2022-11-15T14:33:30.459Z,10.59
2022-11-15T14:36:54.630Z,10.42
2022-11-15T14:39:37.304Z,10.36
2022-11-15T14:42:19.660Z,9.85
2022-11-15T14:45:19.035Z,10.21
2022-11-15T14:48:01.072Z,9.67
2022-11-15T14:50:48.648Z,9.32
2022-11-15T14:53:17.682Z,9.82
2022-11-15T14:56:03.823Z,10.04
2022-11-15T14:59:08.432Z,10.25
2022-11-15T15:01:36.425Z,10.21
2022-11-15T15:04:04.061Z,10.36
2022-11-15T15:06:31.827Z,10.45
2022-11-15T15:08:59.745Z,10.68
2022-11-15T15:11:28.894Z,10.72
2022-11-15T15:14:09.699Z,10.79
2022-11-15T15:17:00.970Z,10.98
2022-11-15T15:20:15.514Z,10.94
2022-11-15T15:23:09.769Z,10.79
2022-11-15T15:25:50.197Z,10.77
2022-11-15T15:28:41.454Z,10.63
2022-11-15T15:31:20.147Z,10.54
2022-11-15T15:34:16.653Z,10.76
2022-11-15T15:36:50.225Z,10.75
2022-11-15T15:39:41.004Z,10.59
2022-11-15T15:42:21.095Z,10.33
2022-11-15T15:45:12.501Z,10.85
2022-11-15T15:47:53.179Z,10.45
2022-11-15T15:50:44.263Z,10.34
2022-11-15T15:53:16.622Z,10.34
2022-11-15T15:55:44.336Z,10.46
2022-11-15T15:58:11.766Z,10.61
2022-11-15T16:00:39.908Z,10.70
2022-11-15T16:03:07.719Z,10.65
2022-11-15T16:06:06.278Z,10.76
2022-11-15T16:09:14.135Z,10.06
2022-11-15T16:11:36.156Z,10.32
2022-11-15T16:14:27.014Z,10.57
2022-11-15T16:17:06.274Z,10.79
2022-11-15T16:19:48.388Z,10.63
2022-11-15T16:22:38.983Z,10.18
2022-11-15T16:25:06.629Z,10.51
2022-11-15T16:27:42.522Z,10.59
2022-11-15T16:30:25.471Z,10.63
2022-11-15T16:32:55.185Z,10.49
2022-11-15T16:35:23.726Z,10.67
2022-11-15T16:37:51.633Z,10.60
2022-11-15T16:40:36.310Z,10.69
2022-11-15T16:43:06.468Z,10.59
2022-11-15T16:45:35.067Z,11.00
2022-11-15T16:48:03.126Z,11.22
2022-11-15T16:50:35.097Z,11.31
2022-11-15T16:53:03.000Z,10.87
2022-11-15T16:55:32.301Z,10.41
2022-11-15T16:58:14.014Z,10.37
2022-11-15T17:05:29.531Z,10.95
2022-11-15T17:08:11.086Z,10.56
2022-11-15T17:10:52.994Z,10.70
2022-11-15T17:13:20.944Z,10.83
2022-11-15T17:15:48.350Z,11.06
2022-11-15T17:18:15.889Z,10.93
2022-11-15T17:21:09.911Z,10.93
2022-11-15T17:23:49.249Z,11.19
2022-11-15T17:26:42.890Z,11.08
2022-11-15T17:29:22.563Z,10.98
2022-11-15T17:32:23.003Z,10.90
2022-11-15T17:35:02.156Z,10.93
2022-11-15T17:37:44.056Z,10.87
2022-11-15T17:40:48.914Z,10.92
2022-11-15T17:43:16.871Z,10.92
2022-11-15T17:46:16.280Z,11.13
2022-11-15T17:48:57.056Z,11.27
2022-11-15T17:51:25.105Z,11.30
2022-11-15T17:53:53.065Z,11.10
2022-11-15T17:56:23.316Z,10.89
2022-11-15T17:58:53.671Z,10.80
2022-11-15T18:01:32.393Z,10.86
2022-11-15T18:04:02.227Z,11.06
2022-11-15T18:06:33.886Z,11.16
2022-11-15T18:09:02.521Z,11.06
2022-11-15T18:11:33.004Z,11.12
2022-11-15T18:14:02.930Z,11.28
2022-11-15T18:16:33.257Z,11.47
2022-11-15T18:19:00.913Z,11.53
2022-11-15T18:21:30.317Z,11.29
2022-11-15T18:24:00.687Z,11.19
2022-11-15T18:26:41.159Z,11.26
2022-11-15T18:29:34.694Z,11.18
2022-11-15T18:32:05.133Z,11.37
2022-11-15T18:34:56.036Z,11.27
2022-11-15T18:37:23.676Z,11.42
2022-11-15T18:40:15.152Z,11.33
2022-11-15T18:42:56.911Z,11.24
2022-11-15T18:45:25.009Z,11.20
2022-11-15T18:47:52.851Z,10.99
2022-11-15T18:50:45.032Z,10.95
2022-11-15T18:53:20.739Z,10.89
2022-11-15T18:55:48.617Z,11.18
2022-11-15T18:58:16.471Z,11.27
2022-11-15T19:00:43.964Z,11.19
2022-11-15T19:03:11.923Z,11.06
2022-11-15T19:05:39.373Z,11.07
2022-11-15T19:08:06.869Z,11.17
2022-11-15T19:10:35.927Z,11.03
2022-11-15T19:13:05.908Z,11.24
2022-11-15T19:15:36.086Z,11.20
2022-11-15T19:18:27.463Z,11.28
2022-11-15T19:21:05.744Z,11.08
2022-11-15T19:23:37.474Z,11.21
2022-11-15T19:26:31.964Z,11.44
2022-11-15T19:29:23.165Z,11.62
2022-11-15T19:32:03.603Z,11.21
2022-11-15T19:34:54.878Z,11.16
2022-11-15T19:37:44.057Z,10.87
2022-11-15T19:40:11.924Z,10.84
2022-11-15T19:42:39.864Z,10.99
2022-11-15T19:45:07.816Z,11.09
2022-11-15T19:47:35.559Z,10.91
2022-11-15T19:50:03.188Z,10.96
2022-11-15T19:52:31.026Z,11.00
2022-11-15T19:54:58.898Z,11.28
2022-11-15T19:57:26.495Z,10.97
2022-11-15T19:59:53.948Z,10.94
2022-11-15T20:02:21.895Z,11.03
2022-11-15T20:04:49.850Z,11.06
2022-11-15T20:07:17.611Z,11.03
2022-11-15T20:09:45.300Z,11.21
2022-11-15T20:12:13.131Z,11.16
2022-11-15T20:14:40.707Z,11.15
2022-11-15T20:17:08.627Z,11.10
2022-11-15T20:19:36.386Z,11.39
2022-11-15T20:22:04.052Z,11.45
2022-11-15T20:24:33.840Z,11.34
2022-11-15T20:27:01.751Z,11.12
2022-11-15T20:29:29.389Z,11.24
2022-11-15T20:31:56.762Z,11.26
2022-11-15T20:34:24.590Z,11.16
2022-11-15T20:36:52.261Z,11.16
2022-11-15T20:39:19.808Z,11.11
2022-11-15T20:41:48.195Z,11.14
2022-11-15T20:44:15.682Z,11.12
2022-11-15T20:46:43.295Z,11.28
2022-11-15T20:49:11.199Z,11.16
2022-11-15T20:51:38.816Z,11.34
2022-11-15T20:54:06.451Z,11.35
2022-11-15T20:56:34.680Z,11.27
2022-11-15T20:59:02.350Z,11.57
2022-11-15T21:01:37.825Z,11.42
2022-11-15T21:04:05.622Z,11.70
2022-11-15T21:06:36.259Z,11.38
2022-11-15T21:09:23.008Z,11.10
2022-11-15T21:12:09.525Z,11.33
2022-11-15T21:14:38.500Z,11.37
2022-11-15T21:17:06.590Z,11.23
2022-11-15T21:19:37.010Z,11.48
2022-11-15T21:22:06.256Z,11.33
2022-11-15T21:24:34.136Z,11.52
2022-11-15T21:27:16.197Z,11.49
2022-11-15T21:30:07.518Z,11.24
2022-11-15T21:32:35.809Z,11.15
2022-11-15T21:35:26.945Z,11.06
2022-11-15T21:38:09.102Z,11.30
2022-11-15T21:41:21.571Z,11.31
2022-11-15T21:44:01.430Z,11.38
2022-11-15T21:46:30.297Z,11.24
2022-11-15T21:48:58.512Z,11.25
2022-11-15T21:51:26.505Z,11.20
2022-11-15T21:53:55.747Z,11.28
2022-11-15T21:56:23.724Z,11.22
2022-11-15T21:58:52.172Z,11.21
2022-11-15T22:01:39.244Z,11.34
2022-11-15T22:04:07.733Z,11.49
2022-11-15T22:06:35.768Z,11.48
2022-11-15T22:09:04.940Z,11.47
2022-11-15T22:11:33.348Z,11.40
2022-11-15T22:14:01.470Z,11.34
2022-11-15T22:16:29.113Z,11.22
2022-11-15T22:18:57.199Z,11.15
2022-11-15T22:21:24.635Z,11.46
2022-11-15T22:23:52.134Z,11.29
2022-11-15T22:26:23.495Z,11.13
2022-11-15T22:28:51.834Z,11.12
2022-11-15T22:31:20.923Z,11.20
2022-11-15T22:33:49.133Z,11.32
2022-11-15T22:36:16.722Z,11.18
2022-11-15T22:38:44.756Z,11.33
2022-11-15T22:41:12.623Z,11.41
2022-11-15T22:43:40.262Z,11.25
2022-11-15T22:46:08.587Z,11.11
2022-11-15T22:48:40.533Z,11.14
2022-11-15T22:51:08.464Z,11.04
2022-11-15T22:53:36.429Z,11.09
2022-11-15T22:56:05.708Z,11.13
2022-11-15T22:58:35.278Z,11.03
2022-11-15T23:01:05.006Z,11.06
2022-11-15T23:03:33.789Z,11.54
2022-11-15T23:06:05.930Z,11.31
2022-11-15T23:08:33.878Z,11.12
2022-11-15T23:11:21.154Z,11.16
2022-11-15T23:13:52.594Z,11.00
2022-11-15T23:16:24.182Z,10.89
2022-11-15T23:18:57.704Z,10.69
2022-11-15T23:21:57.790Z,10.81
2022-11-15T23:24:26.431Z,11.06
2022-11-15T23:27:04.861Z,10.84
2022-11-15T23:29:54.465Z,10.61
2022-11-15T23:32:41.505Z,10.81
2022-11-15T23:35:09.947Z,10.83
2022-11-15T23:37:37.471Z,10.61
2022-11-15T23:40:05.763Z,10.66
2022-11-15T23:42:33.609Z,10.57
2022-11-15T23:45:01.242Z,10.82
2022-11-15T23:47:28.705Z,10.82
2022-11-15T23:49:56.523Z,10.82
2022-11-15T23:52:25.384Z,11.08
2022-11-15T23:54:55.074Z,11.06
2022-11-15T23:57:23.407Z,11.03
2022-11-15T23:59:50.885Z,10.99
